VA84 weather

Point Farm Heliport
Cape Charles, Virginia, United States

Public forecast

Using degrees Fahrenheit for public forecast. Weather courtesy of forecast.io.

METAR (pilot weather report)

Closest report is Langley Air Force Base, 21.4 nm (39.6 km) SW. Retrieved 2019/09/17 19:56 UTC (16 minutes ago):

KLFI 171956Z 09014KT 10SM BKN035 BKN190 24/19 A3004 RMK AO2A SLP179 T02440185 $

TAF (pilot weather forecast)

Closest forecast is Langley Air Force Base, 21.4 nm (39.6 km) SW. Retrieved 2019/09/17 17:45 UTC (2 hours ago):

TAF KLFI 171700Z 1717/1823 08015G25KT 9999 BKN020 BKN035 QNH3001INS TEMPO 1718/1722 8000 -SHRA BKN015 BECMG 1722/1723 06012G18KT 9999 BKN025 QNH3003INS BECMG 1813/1814 04015G25KT 9999 BKN020 BKN040 QNH3012INS TX27/1718Z TN19/1810Z